Time;durP1;ratioP1;P1;durP2;ratioP2;P2;SDS_P1;SDS_P2;PMS_P1;PMS_P2;Temp;Humidity;BMP_temperature;BMP_pressure;BME280_temperature;BME280_humidity;BME280_pressure;Samples;Min_cycle;Max_cycle;Signal;HPM_P1;HPM_P2
2022/10/01 00:01:00;;;;;;;11.53;8.78;;;;;;;16.62;100.00;101006.21;1642279;87;21118;-86
2022/10/01 00:03:28;;;;;;;13.10;9.85;;;;;;;16.62;100.00;101010.67;1642352;87;20868;-86
2022/10/01 00:06:13;;;;;;;13.58;9.25;;;;;;;16.62;100.00;101018.62;1662199;85;20934;-86
2022/10/01 00:08:40;;;;;;;14.45;9.93;;;;;;;16.61;100.00;101008.97;1633758;87;20945;-87
2022/10/01 00:11:24;;;;;;;15.00;9.80;;;;;;;16.61;100.00;101003.22;1662069;85;21152;-86
2022/10/01 00:13:51;;;;;;;16.77;10.58;;;;;;;16.60;100.00;101011.27;1634158;87;20952;-86
2022/10/01 00:16:22;;;;;;;9.80;8.80;;;;;;;16.58;100.00;101006.95;1662404;85;21029;-86
2022/10/01 00:18:48;;;;;;;13.30;10.28;;;;;;;16.58;100.00;101013.58;1634239;87;21830;-86
2022/10/01 00:21:18;;;;;;;14.05;9.80;;;;;;;16.57;100.00;101017.17;1662744;86;20918;-85
2022/10/01 00:23:45;;;;;;;14.68;9.55;;;;;;;16.57;100.00;101018.98;1633797;87;21162;-85
2022/10/01 00:26:15;;;;;;;15.40;9.25;;;;;;;16.57;100.00;101010.55;1662372;86;21555;-85
2022/10/01 00:28:44;;;;;;;11.97;9.05;;;;;;;16.56;100.00;101011.53;1634056;87;20994;-85
2022/10/01 00:31:11;;;;;;;12.82;8.83;;;;;;;16.58;100.00;101015.36;1662357;86;20970;-85
2022/10/01 00:33:38;;;;;;;13.03;9.00;;;;;;;16.59;100.00;101015.73;1633862;87;20932;-86
2022/10/01 00:36:05;;;;;;;11.83;9.10;;;;;;;16.61;100.00;101012.48;1662098;86;21791;-85
2022/10/01 00:38:33;;;;;;;10.23;8.48;;;;;;;16.61;100.00;101023.53;1633759;87;20940;-86
2022/10/01 00:41:00;;;;;;;10.75;9.33;;;;;;;16.61;100.00;101021.75;1661875;86;20954;-87
2022/10/01 00:43:30;;;;;;;14.47;9.58;;;;;;;16.59;100.00;101021.03;1633591;87;20889;-86
2022/10/01 00:46:00;;;;;;;11.53;8.83;;;;;;;16.58;100.00;101021.52;1661979;85;20923;-87
2022/10/01 00:48:27;;;;;;;11.88;8.88;;;;;;;16.56;100.00;101025.22;1648523;84;21447;-86
2022/10/01 00:50:54;;;;;;;11.53;8.58;;;;;;;16.57;100.00;101028.25;1695419;84;20893;-84
2022/10/01 00:53:20;;;;;;;9.93;8.78;;;;;;;16.54;100.00;101026.69;1695148;83;20933;-84
2022/10/01 00:55:54;;;;;;;11.40;8.68;;;;;;;16.51;100.00;101025.59;1695599;83;20926;-85
2022/10/01 00:58:21;;;;;;;;;;;;;;;16.50;100.00;101027.89;1697967;83;20973;-86
2022/10/01 01:00:48;;;;;;;14.33;9.68;;;;;;;16.49;100.00;101029.33;1725042;83;21221;-85
2022/10/01 01:03:15;;;;;;;13.95;8.75;;;;;;;16.46;100.00;101033.06;1725269;83;21422;-85
2022/10/01 01:05:41;;;;;;;14.43;9.60;;;;;;;16.44;100.00;101028.36;1725054;82;20987;-86
2022/10/01 01:08:08;;;;;;;14.90;9.18;;;;;;;16.42;100.00;101028.12;1725517;83;20948;-86
2022/10/01 01:10:58;;;;;;;14.03;9.70;;;;;;;16.39;100.00;101025.73;1725287;83;20904;-85
2022/10/01 01:13:52;;;;;;;11.12;9.73;;;;;;;16.36;100.00;101031.62;1726298;83;21162;-84
2022/10/01 01:16:37;;;;;;;14.78;10.18;;;;;;;16.34;100.00;101026.92;1726086;83;20991;-84
2022/10/01 01:19:44;;;;;;;15.03;8.48;;;;;;;16.33;100.00;101025.71;1725459;82;20873;-87
2022/10/01 01:22:12;;;;;;;15.85;9.60;;;;;;;16.30;100.00;101029.45;1725038;83;20979;-86
2022/10/01 01:24:55;;;;;;;18.57;11.25;;;;;;;16.28;100.00;101032.69;1725170;83;21022;-86
2022/10/01 01:27:45;;;;;;;12.03;10.23;;;;;;;16.28;100.00;101038.47;1724747;82;21515;-86
2022/10/01 01:30:14;;;;;;;19.23;12.60;;;;;;;16.26;100.00;101030.64;1724665;83;21015;-86
2022/10/01 01:33:03;;;;;;;22.30;16.57;;;;;;;16.24;100.00;101033.05;1725398;83;20980;-86
2022/10/01 01:35:39;;;;;;;14.18;10.88;;;;;;;16.23;100.00;101030.89;1724974;82;21437;-87
2022/10/01 01:38:10;;;;;;;13.00;10.58;;;;;;;16.23;100.00;101032.21;1709695;83;21489;-85
2022/10/01 01:40:37;;;;;;;17.95;11.20;;;;;;;16.23;100.00;101036.64;1725120;82;21244;-85
2022/10/01 01:43:06;;;;;;;16.37;10.72;;;;;;;16.21;100.00;101039.42;1695753;84;20852;-85
2022/10/01 01:45:32;;;;;;;14.05;10.82;;;;;;;16.21;100.00;101038.10;1695453;84;20898;-85
2022/10/01 01:48:01;;;;;;;15.98;11.93;;;;;;;16.20;100.00;101035.08;1695015;84;21016;-86
2022/10/01 01:50:29;;;;;;;14.78;10.55;;;;;;;16.20;100.00;101035.08;1692333;84;20933;-86
2022/10/01 01:52:58;;;;;;;16.32;10.85;;;;;;;16.19;100.00;101029.44;1711949;83;21265;-86
2022/10/01 01:55:27;;;;;;;16.55;10.70;;;;;;;16.17;100.00;101026.06;1664089;83;20944;-85
2022/10/01 01:57:53;;;;;;;14.23;11.00;;;;;;;16.16;100.00;101030.52;1712048;83;21439;-86
2022/10/01 02:00:21;;;;;;;11.88;10.35;;;;;;;16.14;100.00;101042.16;1709481;83;21003;-87
2022/10/01 02:02:51;;;;;;;12.53;11.22;;;;;;;16.14;100.00;101042.16;1725131;83;20953;-87
2022/10/01 02:05:22;;;;;;;13.22;11.12;;;;;;;16.10;100.00;101037.59;1692364;84;21152;-86
2022/10/01 02:08:07;;;;;;;14.13;12.75;;;;;;;16.10;100.00;101038.92;1695251;84;20991;-87
2022/10/01 02:10:48;;;;;;;15.23;11.97;;;;;;;16.06;100.00;101037.46;1696208;84;20951;-86
2022/10/01 02:13:33;;;;;;;15.68;12.07;;;;;;;16.05;100.00;101038.44;1695334;84;20880;-87
2022/10/01 02:16:17;;;;;;;14.95;11.97;;;;;;;16.02;100.00;101036.50;1696155;84;20991;-86
2022/10/01 02:19:07;;;;;;;12.88;11.15;;;;;;;16.02;100.00;101036.50;1696199;84;21178;-84
2022/10/01 02:22:04;;;;;;;11.78;10.45;;;;;;;16.00;100.00;101037.09;1696155;84;20932;-84
2022/10/01 02:24:45;;;;;;;15.48;11.45;;;;;;;15.95;100.00;101030.34;1695487;84;20995;-86
2022/10/01 02:27:32;;;;;;;15.72;12.15;;;;;;;15.95;100.00;101030.34;1695358;84;20944;-85
2022/10/01 02:30:04;;;;;;;15.43;11.33;;;;;;;15.91;100.00;101024.92;1695669;84;20904;-88
2022/10/01 02:32:31;;;;;;;15.23;11.30;;;;;;;15.90;100.00;101037.80;1695451;84;21138;-87
2022/10/01 02:34:58;;;;;;;16.42;10.32;;;;;;;15.89;100.00;101036.09;1695114;84;20967;-86
2022/10/01 02:37:26;;;;;;;13.80;10.82;;;;;;;15.86;100.00;101028.40;1669367;84;20944;-86
2022/10/01 02:39:54;;;;;;;15.30;10.13;;;;;;;15.84;100.00;101025.52;1695265;84;21462;-87
2022/10/01 02:42:23;;;;;;;12.82;10.65;;;;;;;15.84;100.00;101025.52;1695175;84;20963;-88
2022/10/01 02:44:50;;;;;;;13.22;10.43;;;;;;;15.83;100.00;101035.26;1695272;84;22246;-86
2022/10/01 02:47:27;;;;;;;13.28;11.68;;;;;;;15.82;100.00;101040.16;1695260;84;20936;-88
2022/10/01 02:49:54;;;;;;;12.45;10.40;;;;;;;15.82;100.00;101044.62;1683530;83;20909;-86
2022/10/01 02:52:52;;;;;;;12.10;10.90;;;;;;;15.79;100.00;101044.86;1682456;85;20946;-86
2022/10/01 02:55:32;;;;;;;14.38;10.25;;;;;;;15.78;100.00;101043.16;1682675;85;20946;-86
2022/10/01 02:57:58;;;;;;;16.27;10.93;;;;;;;15.74;100.00;101046.53;1682610;85;21818;-85
2022/10/01 03:00:26;;;;;;;12.13;10.60;;;;;;;15.73;100.00;101044.83;1682993;85;20878;-86
2022/10/01 03:02:54;;;;;;;12.90;9.83;;;;;;;15.72;100.00;101047.13;1684821;81;21121;-88
2022/10/01 03:05:20;;;;;;;12.50;10.95;;;;;;;15.72;100.00;101047.13;1685199;83;20866;-86
2022/10/01 03:07:47;;;;;;;17.10;11.30;;;;;;;15.72;100.00;101049.28;1683307;81;20919;-87
2022/10/01 03:10:14;;;;;;;12.35;10.55;;;;;;;15.71;100.00;101042.29;1685039;81;21202;-87
2022/10/01 03:12:45;;;;;;;12.35;11.05;;;;;;;15.73;100.00;101047.47;1682457;85;20970;-86
2022/10/01 03:15:16;;;;;;;13.48;10.85;;;;;;;15.72;100.00;101051.09;1682542;85;20922;-85
2022/10/01 03:17:42;;;;;;;17.07;11.25;;;;;;;15.72;100.00;101052.41;1682151;85;20890;-86
2022/10/01 03:20:10;;;;;;;15.80;11.65;;;;;;;15.71;100.00;101048.90;1682361;85;21585;-87
2022/10/01 03:22:37;;;;;;;13.55;10.20;;;;;;;15.71;100.00;101056.00;1682307;85;21293;-85
2022/10/01 03:25:04;;;;;;;17.67;10.98;;;;;;;15.69;100.00;101053.42;1682275;85;20887;-87
2022/10/01 03:27:31;;;;;;;13.15;11.05;;;;;;;15.67;100.00;101055.82;1682636;85;21084;-86
2022/10/01 03:29:57;;;;;;;14.05;9.73;;;;;;;15.67;100.00;101055.82;1682302;85;21408;-87
2022/10/01 03:32:24;;;;;;;13.80;10.70;;;;;;;15.69;100.00;101059.20;1682532;85;21372;-87
2022/10/01 03:34:50;;;;;;;15.18;10.75;;;;;;;15.69;100.00;101059.20;1682274;85;21158;-87
2022/10/01 03:37:17;;;;;;;16.55;11.15;;;;;;;15.66;100.00;101056.31;1682247;85;20846;-87
2022/10/01 03:39:43;;;;;;;12.68;10.68;;;;;;;15.68;100.00;101057.04;1682335;85;20914;-87
2022/10/01 03:42:10;;;;;;;12.90;9.53;;;;;;;15.67;100.00;101057.14;1682351;85;20978;-87
2022/10/01 03:44:37;;;;;;;14.75;10.95;;;;;;;15.68;100.00;101062.33;1682374;85;20934;-87
2022/10/01 03:47:03;;;;;;;13.40;10.32;;;;;;;15.66;100.00;101061.59;1682275;85;21266;-87
2022/10/01 03:50:31;;;;;;;13.22;10.13;;;;;;;15.72;100.00;101063.83;1812185;79;24082;-87
2022/10/01 03:52:58;;;;;;;14.68;10.58;;;;;;;15.66;100.00;101065.56;1765759;79;20926;-88
2022/10/01 03:55:25;;;;;;;18.15;10.68;;;;;;;15.64;100.00;101056.06;1761013;80;21142;-87
2022/10/01 03:57:52;;;;;;;11.10;9.78;;;;;;;15.64;100.00;101056.06;1779629;79;21010;-87
2022/10/01 04:00:18;;;;;;;12.40;11.20;;;;;;;15.61;100.00;101062.42;1785479;80;20923;-86
2022/10/01 04:02:45;;;;;;;17.65;11.12;;;;;;;15.60;100.00;101062.53;1773891;80;20951;-88
2022/10/01 04:05:12;;;;;;;16.70;13.35;;;;;;;15.57;100.00;101052.20;1786518;80;21097;-86
2022/10/01 04:07:40;;;;;;;15.20;10.65;;;;;;;15.58;100.00;101057.83;1769899;80;21133;-85
2022/10/01 04:10:09;;;;;;;15.00;11.20;;;;;;;15.58;100.00;101065.77;1780724;79;20986;-86
2022/10/01 04:12:35;;;;;;;13.32;11.33;;;;;;;15.58;100.00;101059.16;1764639;80;21046;-89
2022/10/01 04:15:03;;;;;;;13.20;11.20;;;;;;;15.57;100.00;101059.64;1711326;80;21016;-87
2022/10/01 04:17:30;;;;;;;16.15;10.50;;;;;;;15.58;100.00;101064.44;1780700;80;21465;-87
2022/10/01 04:19:59;;;;;;;14.90;9.60;;;;;;;15.58;100.00;101064.44;1793725;80;21173;-87
2022/10/01 04:22:25;;;;;;;14.83;10.65;;;;;;;15.60;100.00;101059.89;1794368;80;21002;-86
2022/10/01 04:24:53;;;;;;;13.95;11.68;;;;;;;15.67;100.00;101069.05;1772029;80;21456;-86
2022/10/01 04:27:20;;;;;;;13.98;11.00;;;;;;;15.67;100.00;101069.05;1774660;79;21125;-87
2022/10/01 04:29:47;;;;;;;11.97;10.48;;;;;;;15.73;100.00;101067.30;1782773;80;20994;-86
2022/10/01 04:32:14;;;;;;;17.45;13.18;;;;;;;15.78;100.00;101057.22;1771624;80;21309;-86
2022/10/01 04:34:54;;;;;;;14.87;10.95;;;;;;;15.83;100.00;101055.09;1776524;80;21541;-86
2022/10/01 04:37:21;;;;;;;18.25;11.65;;;;;;;15.90;100.00;101060.77;1761117;79;20886;-86
2022/10/01 04:39:48;;;;;;;12.40;8.93;;;;;;;15.98;100.00;101068.11;1775246;80;21788;-86
2022/10/01 04:42:15;;;;;;;13.80;8.35;;;;;;;16.07;100.00;101059.47;1793993;80;20963;-86
2022/10/01 04:44:41;;;;;;;11.75;8.75;;;;;;;16.30;100.00;101059.05;1781872;80;21358;-86
2022/10/01 04:47:08;;;;;;;12.82;7.83;;;;;;;16.66;100.00;101065.92;1761747;79;21444;-86
2022/10/01 04:49:34;;;;;;;12.10;8.08;;;;;;;17.06;100.00;101061.45;1776509;79;20939;-87
2022/10/01 04:52:02;;;;;;;8.45;7.65;;;;;;;17.31;98.95;101059.47;1788634;80;20935;-86
2022/10/01 04:54:28;;;;;;;13.22;9.05;;;;;;;17.38;96.54;101054.86;1784201;79;20934;-87
2022/10/01 04:56:57;;;;;;;8.55;6.12;;;;;;;17.43;94.67;101054.51;1793132;80;21139;-87
2022/10/01 04:59:24;;;;;;;10.18;7.53;;;;;;;17.44;93.74;101059.32;1763837;79;20951;-86
2022/10/01 05:01:51;;;;;;;9.13;7.75;;;;;;;17.47;92.93;101065.69;1781763;79;20904;-87
2022/10/01 05:04:17;;;;;;;9.88;6.85;;;;;;;17.54;92.80;101062.42;1775080;80;20943;-87
2022/10/01 05:06:46;;;;;;;10.65;6.72;;;;;;;17.65;92.26;101064.66;1773303;80;20935;-86
2022/10/01 05:09:12;;;;;;;10.28;6.70;;;;;;;17.76;91.58;101067.25;1783005;80;21797;-87
2022/10/01 05:11:39;;;;;;;7.03;6.20;;;;;;;17.85;90.66;101068.33;1779099;80;21054;-86
2022/10/01 05:14:06;;;;;;;7.47;5.60;;;;;;;17.95;90.17;101068.77;1786921;80;21046;-88
2022/10/01 05:16:34;;;;;;;6.75;6.08;;;;;;;18.04;89.26;101069.80;1777316;80;21921;-86
2022/10/01 05:19:00;;;;;;;5.50;4.90;;;;;;;18.14;88.61;101066.73;1791956;80;21361;-85
2022/10/01 05:21:26;;;;;;;10.93;5.85;;;;;;;18.24;87.73;101068.11;1786833;80;21238;-85
2022/10/01 05:23:53;;;;;;;6.78;5.45;;;;;;;18.32;86.74;101064.79;1772544;80;21799;-86
2022/10/01 05:26:20;;;;;;;7.40;5.15;;;;;;;18.44;86.23;101058.44;1778821;80;20899;-88
2022/10/01 05:28:47;;;;;;;5.28;4.78;;;;;;;18.60;85.39;101056.63;1770640;80;20856;-87
2022/10/01 05:31:14;;;;;;;5.85;5.05;;;;;;;18.91;84.80;101059.28;1778763;80;21014;-86
2022/10/01 05:33:41;;;;;;;7.60;4.75;;;;;;;19.36;83.14;101056.98;1793621;80;21161;-86
2022/10/01 05:36:08;;;;;;;9.75;5.37;;;;;;;19.88;81.12;101064.23;1767173;80;21267;-86
2022/10/01 05:38:37;;;;;;;5.03;3.70;;;;;;;20.37;78.48;101060.64;1765192;80;20982;-84
2022/10/01 05:41:04;;;;;;;8.73;4.08;;;;;;;20.90;76.08;101070.70;1760662;80;21505;-86
2022/10/01 05:43:31;;;;;;;5.30;3.33;;;;;;;21.52;73.94;101067.72;1787505;80;20955;-85
2022/10/01 05:46:02;;;;;;;9.40;3.87;;;;;;;22.10;70.27;101074.37;1787124;80;21104;-87
2022/10/01 05:48:35;;;;;;;5.50;3.50;;;;;;;22.50;68.85;101074.78;1769894;79;20898;-87
2022/10/01 05:50:58;;;;;;;5.45;4.30;;;;;;;22.76;66.05;101073.42;1765688;80;20938;-86
2022/10/01 05:53:24;;;;;;;4.92;3.27;;;;;;;23.01;65.16;101078.41;1789515;80;21424;-87
2022/10/01 05:55:52;;;;;;;4.75;3.10;;;;;;;23.30;63.51;101073.97;1772877;80;20863;-86
2022/10/01 05:58:19;;;;;;;4.53;2.90;;;;;;;23.56;62.08;101079.17;1785403;79;22542;-88
2022/10/01 06:00:45;;;;;;;6.33;3.45;;;;;;;23.56;61.92;101077.01;1761556;80;20970;-86
2022/10/01 06:03:13;;;;;;;7.17;3.12;;;;;;;23.47;61.62;101079.34;1765613;80;21292;-86
2022/10/01 06:05:43;;;;;;;4.50;3.52;;;;;;;23.31;61.90;101076.14;1791520;80;20959;-86
2022/10/01 06:08:09;;;;;;;3.20;2.98;;;;;;;23.38;61.82;101084.67;1762244;80;20986;-85
2022/10/01 06:10:37;;;;;;;5.80;4.35;;;;;;;23.73;61.97;101087.23;1768468;79;21154;-86
2022/10/01 06:13:04;;;;;;;4.37;3.05;;;;;;;24.25;60.98;101085.55;1775445;78;20994;-86
2022/10/01 06:15:33;;;;;;;8.33;4.60;;;;;;;24.66;59.64;101093.53;1791727;79;20927;-89
2022/10/01 06:18:07;;;;;;;6.47;3.85;;;;;;;24.84;57.86;101080.40;1784895;78;20946;-87
2022/10/01 06:20:34;;;;;;;3.80;2.98;;;;;;;24.78;57.06;101071.19;1764099;78;21001;-87
2022/10/01 06:23:01;;;;;;;10.23;9.13;;;;;;;24.72;57.45;101064.69;1794332;80;21107;-87
2022/10/01 06:25:28;;;;;;;6.50;3.67;;;;;;;24.76;57.13;101063.81;1769287;78;20923;-88
2022/10/01 06:27:59;;;;;;;19.40;17.45;;;;;;;24.78;57.46;101064.48;1770307;80;21428;-87
2022/10/01 06:30:28;;;;;;;4.12;3.70;;;;;;;24.79;56.89;101067.00;1765680;80;20943;-86
2022/10/01 06:33:07;;;;;;;3.30;3.00;;;;;;;24.68;56.46;101060.67;1774564;79;20947;-88
2022/10/01 06:35:37;;;;;;;3.52;2.27;;;;;;;24.49;56.74;101067.27;1763655;79;21154;-86
2022/10/01 06:38:05;;;;;;;3.55;2.35;;;;;;;24.38;56.90;101081.00;1771151;80;21483;-88
2022/10/01 06:40:32;;;;;;;4.87;3.92;;;;;;;24.39;56.95;101087.55;1779190;80;20919;-88
2022/10/01 06:42:58;;;;;;;3.52;2.95;;;;;;;24.57;56.92;101076.63;1793165;80;20920;-87
2022/10/01 06:45:26;;;;;;;3.45;2.60;;;;;;;24.87;56.45;101082.20;1781028;80;21077;-89
2022/10/01 06:48:04;;;;;;;3.20;2.50;;;;;;;25.08;55.39;101084.78;1765070;79;21145;-87
2022/10/01 06:50:30;;;;;;;3.42;2.22;;;;;;;25.23;54.83;101090.63;1784945;80;20891;-88
2022/10/01 06:52:57;;;;;;;3.02;2.17;;;;;;;25.49;54.54;101085.41;1780310;79;20943;-88
2022/10/01 06:55:26;;;;;;;3.10;1.77;;;;;;;25.88;54.05;101080.45;1791154;80;20986;-89
2022/10/01 06:58:02;;;;;;;3.75;2.65;;;;;;;26.42;53.38;101081.59;1781543;79;21543;-87
2022/10/01 07:00:31;;;;;;;5.00;2.62;;;;;;;26.97;51.32;101078.11;1789279;80;21143;-84
2022/10/01 07:02:58;;;;;;;3.45;2.00;;;;;;;27.39;49.37;101076.53;1776699;80;21362;-87
2022/10/01 07:05:26;;;;;;;6.33;2.10;;;;;;;27.71;49.04;101078.38;1781649;79;20947;-86
2022/10/01 07:07:53;;;;;;;3.62;2.00;;;;;;;28.02;47.90;101083.95;1762367;80;20946;-87
2022/10/01 07:10:22;;;;;;;2.58;1.95;;;;;;;28.26;47.00;101081.33;1774532;80;20865;-87
2022/10/01 07:12:50;;;;;;;5.12;1.70;;;;;;;28.45;46.71;101080.60;1771345;80;21043;-86
2022/10/01 07:15:21;;;;;;;5.30;2.35;;;;;;;28.57;45.94;101080.92;1741905;81;21083;-89
2022/10/01 07:17:50;;;;;;;2.58;1.98;;;;;;;28.66;45.40;101076.20;1752138;80;21483;-87
2022/10/01 07:20:20;;;;;;;5.25;4.17;;;;;;;28.50;45.08;101078.68;1761634;80;21524;-87
2022/10/01 07:22:47;;;;;;;3.92;2.85;;;;;;;28.32;45.70;101077.82;1745176;80;20939;-87
2022/10/01 07:25:15;;;;;;;4.60;3.67;;;;;;;28.14;46.26;101081.55;1703701;82;21277;-87
2022/10/01 07:27:46;;;;;;;2.40;2.20;;;;;;;27.90;46.37;101072.85;1715983;83;21160;-87
2022/10/01 07:30:15;;;;;;;3.22;2.70;;;;;;;27.50;47.03;101079.20;1698923;82;21036;-86
2022/10/01 07:32:45;;;;;;;2.65;2.20;;;;;;;27.19;47.81;101074.94;1720310;82;21408;-86
2022/10/01 07:35:12;;;;;;;10.90;9.70;;;;;;;26.95;48.06;101080.67;1732382;82;20886;-88
2022/10/01 07:37:41;;;;;;;6.00;4.20;;;;;;;26.73;48.69;101085.15;1723533;82;22677;-88
2022/10/01 07:40:08;;;;;;;9.75;8.60;;;;;;;26.54;49.33;101079.26;1731110;82;20922;-89
2022/10/01 07:42:37;;;;;;;14.90;13.20;;;;;;;26.41;49.75;101075.89;1700266;83;20946;-87
2022/10/01 07:45:08;;;;;;;12.20;8.58;;;;;;;26.27;49.65;101072.67;1727925;82;21018;-87
2022/10/01 07:47:35;;;;;;;7.25;5.97;;;;;;;26.30;50.14;101077.67;1694286;83;21058;-88
2022/10/01 07:50:08;;;;;;;4.30;2.80;;;;;;;26.53;49.79;101071.39;1724560;82;21089;-87
2022/10/01 07:52:35;;;;;;;4.62;4.22;;;;;;;26.63;49.32;101080.03;1726682;82;20962;-88
2022/10/01 07:55:02;;;;;;;2.67;2.33;;;;;;;26.75;48.94;101076.38;1722751;82;20955;-87
2022/10/01 07:57:29;;;;;;;6.30;2.17;;;;;;;26.96;48.51;101075.08;1717820;82;20947;-87
2022/10/01 07:59:55;;;;;;;2.77;2.55;;;;;;;27.21;48.20;101063.50;1720322;82;21002;-90
2022/10/01 08:02:23;;;;;;;2.42;1.90;;;;;;;27.34;47.46;101074.91;1721056;83;21212;-88
2022/10/01 08:07:36;;;;;;;4.92;1.77;;;;;;;27.82;47.78;101070.29;1730282;82;20954;-90
2022/10/01 08:10:04;;;;;;;4.10;1.98;;;;;;;28.30;46.75;101065.91;1690757;83;21029;-88
2022/10/01 08:12:30;;;;;;;2.00;1.77;;;;;;;28.82;46.33;101061.00;1720841;82;21014;-88
2022/10/01 08:14:57;;;;;;;2.98;1.25;;;;;;;29.39;44.32;101054.00;1700160;82;21249;-86
2022/10/01 08:17:24;;;;;;;3.12;1.40;;;;;;;29.74;42.79;101049.27;1717729;82;20911;-87
2022/10/01 08:19:51;;;;;;;2.15;1.95;;;;;;;30.00;42.60;101058.42;1719838;82;20930;-87
2022/10/01 08:22:17;;;;;;;4.22;1.55;;;;;;;30.10;41.53;101055.61;1728398;82;20890;-87
2022/10/01 08:24:44;;;;;;;2.52;2.33;;;;;;;29.86;42.28;101057.08;1733257;82;20942;-88
2022/10/01 08:27:11;;;;;;;2.30;1.72;;;;;;;29.62;43.17;101059.86;1730056;82;21132;-85
2022/10/01 08:29:42;;;;;;;4.90;1.92;;;;;;;29.50;42.81;101055.59;1729526;82;20906;-85
2022/10/01 08:32:06;;;;;;;2.65;2.27;;;;;;;29.48;43.29;101049.56;1722878;82;21512;-87
2022/10/01 08:34:34;;;;;;;5.47;2.58;;;;;;;29.57;43.43;101047.48;1717564;82;21002;-88
2022/10/01 08:37:00;;;;;;;2.10;1.90;;;;;;;29.72;43.72;101042.71;1720414;82;21480;-86
2022/10/01 08:39:26;;;;;;;3.02;2.33;;;;;;;29.91;43.59;101041.58;1722222;82;21363;-87
2022/10/01 08:42:14;;;;;;;2.77;2.30;;;;;;;30.09;43.44;101047.16;1718378;82;21023;-88
2022/10/01 08:44:44;;;;;;;2.47;2.27;;;;;;;30.24;43.11;101046.08;1700378;82;20889;-87
2022/10/01 08:47:20;;;;;;;3.95;2.80;;;;;;;30.23;42.79;101044.43;1720825;82;21573;-86
2022/10/01 08:49:50;;;;;;;5.42;3.58;;;;;;;30.13;43.12;101035.41;1727693;82;20963;-86
2022/10/01 08:52:24;;;;;;;4.62;3.33;;;;;;;30.12;43.19;101034.55;1727599;82;21316;-87
2022/10/01 08:54:58;;;;;;;4.33;2.33;;;;;;;30.18;43.69;101033.42;1716739;82;21038;-89
2022/10/01 08:57:31;;;;;;;5.62;3.27;;;;;;;30.37;43.65;101039.31;1721513;82;20994;-88
2022/10/01 09:00:00;;;;;;;3.92;2.47;;;;;;;30.63;43.41;101032.98;1729131;82;20969;-86
2022/10/01 09:02:34;;;;;;;2.62;2.42;;;;;;;30.90;42.87;101025.58;1725855;82;21748;-87
2022/10/01 09:05:04;;;;;;;3.75;2.85;;;;;;;31.08;42.04;101019.96;1727160;82;21150;-86
2022/10/01 09:07:42;;;;;;;3.47;2.75;;;;;;;31.22;42.48;101026.15;1720954;82;20887;-88
2022/10/01 09:10:34;;;;;;;3.62;2.85;;;;;;;31.36;41.32;101026.34;1714588;82;21777;-86
2022/10/01 09:13:32;;;;;;;3.08;2.87;;;;;;;31.33;41.20;101024.09;1719567;82;27029;-89
2022/10/01 09:16:19;;;;;;;6.50;2.55;;;;;;;31.19;41.52;101020.61;1704210;82;20905;-88
2022/10/01 09:19:25;;;;;;;3.33;2.42;;;;;;;31.10;41.92;101024.64;1721908;82;21224;-87
2022/10/01 09:22:02;;;;;;;3.25;2.98;;;;;;;31.04;41.68;101014.67;1694595;82;20998;-87
2022/10/01 09:24:42;;;;;;;3.20;2.80;;;;;;;30.78;42.18;101010.52;1708153;83;20952;-87
2022/10/01 09:27:16;;;;;;;5.90;3.50;;;;;;;30.62;42.69;101016.44;1725195;82;21038;-86
2022/10/01 09:29:53;;;;;;;4.70;2.83;;;;;;;30.54;42.68;101009.91;1722812;82;21018;-88
2022/10/01 09:32:23;;;;;;;3.37;2.92;;;;;;;30.43;43.27;101005.16;1721158;80;21580;-89
2022/10/01 09:34:50;;;;;;;4.05;3.62;;;;;;;30.28;43.41;101006.77;1719253;80;20927;-88
2022/10/01 09:37:43;;;;;;;5.58;4.00;;;;;;;30.03;43.89;100999.84;1731687;80;20926;-88
2022/10/01 09:40:41;;;;;;;4.45;3.25;;;;;;;29.96;44.92;101010.14;1714250;80;21034;-87
2022/10/01 09:43:08;;;;;;;4.40;4.00;;;;;;;29.94;44.77;101001.94;1692212;84;21078;-88
2022/10/01 09:45:36;;;;;;;3.87;3.55;;;;;;;29.91;45.39;101003.19;1704819;82;21134;-86
2022/10/01 09:48:28;;;;;;;3.58;3.35;;;;;;;29.86;45.51;100996.23;1710668;81;21067;-85
2022/10/01 09:51:03;;;;;;;4.30;3.70;;;;;;;29.71;45.34;101003.21;1712876;82;21046;-88
2022/10/01 09:53:44;;;;;;;5.70;4.53;;;;;;;29.44;45.77;101002.36;1709149;81;20925;-88
2022/10/01 09:56:24;;;;;;;4.37;3.92;;;;;;;29.30;46.30;101011.48;1706075;81;20952;-87
2022/10/01 09:58:54;;;;;;;5.05;4.65;;;;;;;29.20;46.89;101006.49;1716069;82;21683;-87
2022/10/01 10:01:38;;;;;;;6.80;4.37;;;;;;;29.20;47.10;101009.72;1713667;81;21023;-85
2022/10/01 10:04:05;;;;;;;7.17;4.40;;;;;;;29.17;46.95;101004.70;1715876;82;21599;-86
2022/10/01 10:06:32;;;;;;;5.40;4.90;;;;;;;29.07;47.26;101000.51;1711971;82;21071;-88
2022/10/01 10:08:59;;;;;;;4.67;4.25;;;;;;;29.07;47.71;100995.63;1713208;81;20971;-88
2022/10/01 10:11:28;;;;;;;5.30;4.17;;;;;;;29.09;47.59;100986.84;1716823;81;21670;-87
2022/10/01 10:13:59;;;;;;;4.97;4.53;;;;;;;29.19;47.74;100990.48;1713470;82;20977;-87
2022/10/01 10:16:34;;;;;;;5.17;4.25;;;;;;;29.26;47.26;100989.47;1709337;82;21413;-87
2022/10/01 10:19:09;;;;;;;4.72;4.33;;;;;;;29.29;47.01;100980.94;1730385;80;21000;-84
2022/10/01 10:21:36;;;;;;;4.42;4.03;;;;;;;29.28;47.53;100988.74;1730227;80;23160;-84
2022/10/01 10:24:06;;;;;;;4.85;4.33;;;;;;;29.32;47.65;100979.69;1749673;80;21238;-86
2022/10/01 10:26:37;;;;;;;5.03;4.47;;;;;;;29.37;47.39;100983.97;1728644;80;21019;-86
2022/10/01 10:29:07;;;;;;;4.97;4.58;;;;;;;29.42;47.29;100983.34;1704410;82;20988;-86
2022/10/01 10:31:39;;;;;;;5.50;4.50;;;;;;;29.47;47.24;100975.44;1715352;82;20986;-88
2022/10/01 10:34:17;;;;;;;5.40;4.90;;;;;;;29.53;47.13;100981.37;1723322;82;21422;-85
2022/10/01 10:36:44;;;;;;;4.97;4.62;;;;;;;29.54;47.33;100968.98;1716480;82;21700;-88
2022/10/01 10:39:28;;;;;;;5.03;4.50;;;;;;;29.62;47.56;100967.12;1717732;82;20912;-87
2022/10/01 10:41:56;;;;;;;8.05;5.10;;;;;;;29.73;47.45;100961.94;1725372;82;21022;-85
2022/10/01 10:44:23;;;;;;;5.03;4.72;;;;;;;29.87;46.78;100961.38;1704705;82;21551;-86
2022/10/01 10:46:51;;;;;;;5.65;5.15;;;;;;;29.99;46.46;100960.73;1721465;82;21396;-88
2022/10/01 10:49:28;;;;;;;21.30;19.40;;;;;;;30.09;46.37;100959.77;1725353;82;21228;-85
2022/10/01 10:51:57;;;;;;;6.80;6.08;;;;;;;30.13;45.75;100953.72;1723418;82;21201;-85
2022/10/01 10:54:36;;;;;;;6.10;5.53;;;;;;;30.11;45.56;100958.52;1730972;82;21033;-86
2022/10/01 10:57:05;;;;;;;5.95;5.05;;;;;;;30.05;45.63;100958.53;1722030;82;20872;-88
2022/10/01 10:59:32;;;;;;;5.97;5.58;;;;;;;29.96;45.94;100951.99;1718121;82;20907;-88
2022/10/01 11:02:01;;;;;;;6.22;5.55;;;;;;;29.83;45.86;100956.08;1729185;82;21439;-87
2022/10/01 11:04:42;;;;;;;6.50;6.00;;;;;;;29.63;45.69;100954.73;1729367;82;20989;-87
2022/10/01 11:07:09;;;;;;;7.03;6.45;;;;;;;29.24;46.49;100953.72;1727457;82;20906;-88
2022/10/01 11:10:05;;;;;;;11.15;10.15;;;;;;;28.96;47.33;100945.75;1718091;82;20939;-87
2022/10/01 11:12:56;;;;;;;10.05;9.25;;;;;;;28.71;47.57;100946.86;1729588;82;21032;-87
2022/10/01 11:15:54;;;;;;;10.00;9.08;;;;;;;28.37;48.01;100947.23;1728700;82;21152;-86
2022/10/01 11:18:50;;;;;;;13.25;10.32;;;;;;;27.96;49.03;100958.02;1725007;82;20870;-86
2022/10/01 11:21:47;;;;;;;10.75;9.70;;;;;;;27.64;50.16;100953.02;1721553;82;20949;-86
2022/10/01 11:24:37;;;;;;;13.75;12.25;;;;;;;27.42;51.08;100949.53;1732442;82;21021;-86
2022/10/01 11:27:37;;;;;;;12.70;11.53;;;;;;;27.25;51.37;100950.30;1722737;82;20978;-85
2022/10/01 11:30:18;;;;;;;12.00;11.00;;;;;;;26.98;51.67;100945.68;1722427;82;21145;-87
2022/10/01 11:32:59;;;;;;;12.33;11.12;;;;;;;26.67;52.38;100953.02;1729900;82;20863;-87
2022/10/01 11:35:33;;;;;;;17.95;16.17;;;;;;;26.47;53.15;100950.05;1726621;82;21022;-86
2022/10/01 11:38:30;;;;;;;;;;;;;;;26.32;53.96;100950.59;1719758;82;20914;-90
2022/10/01 11:41:08;;;;;;;13.72;12.23;;;;;;;26.15;54.47;100955.35;1723262;82;20121;-87